createdAt,value
2019-06-10T00:02:05.110Z,9.60
2019-06-10T00:04:34.230Z,10.05
2019-06-10T00:07:05.425Z,10.58
2019-06-10T00:09:35.485Z,10.88
2019-06-10T00:12:06.403Z,7.65
2019-06-10T00:14:36.516Z,8.43
2019-06-10T00:17:07.631Z,13.28
2019-06-10T00:19:37.336Z,17.55
2019-06-10T00:22:08.416Z,12.55
2019-06-10T00:24:40.780Z,8.83
2019-06-10T00:27:11.613Z,9.65
2019-06-10T00:29:40.897Z,10.88
2019-06-10T00:32:13.170Z,11.85
2019-06-10T00:34:42.049Z,11.20
2019-06-10T00:37:14.552Z,15.15
2019-06-10T00:39:42.533Z,17.12
2019-06-10T00:42:15.095Z,9.33
2019-06-10T00:44:43.089Z,12.20
2019-06-10T00:47:14.996Z,16.07
2019-06-10T00:49:43.712Z,11.78
2019-06-10T00:52:13.973Z,7.95
2019-06-10T00:54:43.657Z,12.85
2019-06-10T00:57:13.769Z,13.95
2019-06-10T00:59:43.204Z,13.38
2019-06-10T01:02:14.427Z,15.03
2019-06-10T01:04:44.125Z,11.60
2019-06-10T01:07:14.849Z,11.03
2019-06-10T01:09:44.545Z,9.75
2019-06-10T01:12:15.027Z,10.08
2019-06-10T01:14:45.552Z,12.30
2019-06-10T01:17:15.601Z,7.33
2019-06-10T01:19:45.176Z,10.50
2019-06-10T01:22:15.938Z,11.00
2019-06-10T01:24:45.715Z,13.75
2019-06-10T01:27:15.275Z,16.82
2019-06-10T01:29:44.655Z,14.30
2019-06-10T01:32:15.064Z,11.48
2019-06-10T01:34:44.554Z,9.58
2019-06-10T01:37:14.753Z,13.60
2019-06-10T01:39:45.010Z,12.47
2019-06-10T01:42:15.912Z,15.80
2019-06-10T01:44:45.647Z,11.38
2019-06-10T01:47:17.476Z,9.30
2019-06-10T01:49:47.127Z,13.30
2019-06-10T01:52:17.851Z,16.12
2019-06-10T01:54:47.670Z,14.15
2019-06-10T01:57:18.497Z,23.95
2019-06-10T01:59:50.721Z,8.98
2019-06-10T02:02:23.684Z,13.00
2019-06-10T02:04:52.053Z,13.98
2019-06-10T02:07:23.062Z,10.15
2019-06-10T02:09:52.716Z,10.18
2019-06-10T02:12:24.031Z,15.18
2019-06-10T02:14:53.217Z,11.78
2019-06-10T02:17:23.973Z,10.85
2019-06-10T02:19:53.795Z,10.30
2019-06-10T02:22:24.224Z,10.78
2019-06-10T02:24:54.083Z,19.87
2019-06-10T02:27:23.563Z,11.70
2019-06-10T02:29:53.039Z,13.98
2019-06-10T02:32:31.379Z,13.38
2019-06-10T02:35:08.189Z,15.58
2019-06-10T02:37:31.875Z,12.73
2019-06-10T02:39:57.164Z,9.93
2019-06-10T02:42:30.448Z,10.93
2019-06-10T02:44:59.258Z,9.95
2019-06-10T02:47:33.511Z,13.22
2019-06-10T02:50:07.003Z,11.80
2019-06-10T02:52:34.383Z,13.13
2019-06-10T02:55:04.131Z,11.00
2019-06-10T02:57:39.815Z,9.13
2019-06-10T03:00:22.345Z,9.30
2019-06-10T03:02:44.957Z,12.88
2019-06-10T03:05:14.634Z,11.30
2019-06-10T03:07:44.952Z,14.35
2019-06-10T03:10:16.367Z,13.48
2019-06-10T03:12:45.900Z,10.28
2019-06-10T03:15:15.735Z,12.07
2019-06-10T03:17:46.201Z,10.18
2019-06-10T03:20:15.989Z,12.90
2019-06-10T03:22:45.458Z,11.95
2019-06-10T03:25:16.009Z,16.70
2019-06-10T03:27:45.830Z,9.60
2019-06-10T03:30:25.399Z,10.05
2019-06-10T03:32:47.660Z,9.50
2019-06-10T03:35:19.241Z,12.28
2019-06-10T03:37:48.843Z,13.25
2019-06-10T03:40:18.509Z,16.90
2019-06-10T03:42:47.911Z,12.35
2019-06-10T03:45:17.582Z,17.23
2019-06-10T03:47:46.926Z,13.08
2019-06-10T03:50:17.167Z,14.07
2019-06-10T03:52:46.665Z,10.82
2019-06-10T03:55:17.228Z,9.90
2019-06-10T03:57:47.596Z,16.77
2019-06-10T04:00:17.561Z,9.58
2019-06-10T04:02:46.995Z,11.95
2019-06-10T04:05:17.505Z,12.55
2019-06-10T04:07:46.865Z,13.88
2019-06-10T04:10:17.562Z,14.93
2019-06-10T04:12:46.967Z,10.80
2019-06-10T04:15:17.651Z,12.78
2019-06-10T04:17:47.071Z,18.35
2019-06-10T04:20:17.771Z,16.52
2019-06-10T04:22:47.292Z,14.50
2019-06-10T04:25:17.789Z,14.28
2019-06-10T04:27:47.451Z,15.50
2019-06-10T04:30:18.295Z,14.60
2019-06-10T04:32:48.654Z,23.02
2019-06-10T04:35:18.323Z,18.15
2019-06-10T04:37:48.016Z,23.70
2019-06-10T04:40:18.449Z,15.78
2019-06-10T04:42:47.903Z,17.15
2019-06-10T04:45:18.679Z,10.55
2019-06-10T04:47:49.256Z,19.62
2019-06-10T04:50:27.082Z,13.78
2019-06-10T04:52:49.716Z,16.40
2019-06-10T04:55:19.231Z,20.72
2019-06-10T04:57:48.626Z,21.70
2019-06-10T05:00:19.174Z,15.50
2019-06-10T05:02:52.089Z,25.25
2019-06-10T05:05:23.652Z,20.05
2019-06-10T05:07:52.097Z,20.75
2019-06-10T05:10:23.683Z,15.30
2019-06-10T05:12:52.707Z,17.30
2019-06-10T05:15:24.918Z,17.85
2019-06-10T05:17:53.148Z,15.80
2019-06-10T05:20:39.123Z,18.73
2019-06-10T05:22:54.010Z,20.60
2019-06-10T05:25:25.334Z,19.60
2019-06-10T05:27:54.740Z,16.73
2019-06-10T05:30:26.290Z,23.55
2019-06-10T05:32:55.260Z,16.73
2019-06-10T05:35:26.946Z,21.37
2019-06-10T05:37:55.998Z,19.60
2019-06-10T05:40:26.536Z,19.40
2019-06-10T05:42:56.500Z,17.15
2019-06-10T05:45:27.469Z,17.52
2019-06-10T05:47:57.023Z,13.00
2019-06-10T05:50:26.794Z,15.95
2019-06-10T05:52:56.265Z,17.62
2019-06-10T05:55:27.027Z,18.02
2019-06-10T05:57:56.462Z,16.17
2019-06-10T06:00:26.151Z,18.02
2019-06-10T06:02:56.088Z,16.87
2019-06-10T06:05:26.034Z,16.42
2019-06-10T06:08:04.430Z,19.75
2019-06-10T06:10:27.255Z,13.60
2019-06-10T06:12:56.913Z,19.45
2019-06-10T06:15:27.429Z,14.43
2019-06-10T06:18:09.259Z,24.67
2019-06-10T06:20:29.283Z,12.78
2019-06-10T06:22:58.724Z,15.38
2019-06-10T06:25:30.510Z,17.67
2019-06-10T06:28:02.855Z,15.35
2019-06-10T06:30:33.325Z,20.80
2019-06-10T06:33:03.010Z,12.50
2019-06-10T06:35:33.945Z,18.95
2019-06-10T06:38:05.990Z,16.87
2019-06-10T06:40:37.258Z,25.12
2019-06-10T06:43:07.012Z,16.35
2019-06-10T06:45:37.763Z,15.78
2019-06-10T06:48:07.501Z,14.75
2019-06-10T06:50:41.586Z,16.20
2019-06-10T06:53:22.608Z,14.33
2019-06-10T06:55:39.769Z,14.60
2019-06-10T06:58:09.287Z,20.43
2019-06-10T07:00:59.843Z,15.18
2019-06-10T07:03:09.834Z,12.95
2019-06-10T07:05:43.178Z,13.78
2019-06-10T07:08:13.195Z,16.15
2019-06-10T07:10:43.568Z,13.40
2019-06-10T07:13:13.077Z,14.85
2019-06-10T07:15:46.857Z,13.65
2019-06-10T07:18:16.162Z,9.47
2019-06-10T07:20:45.999Z,18.23
2019-06-10T07:23:17.988Z,14.87
2019-06-10T07:25:47.816Z,13.00
2019-06-10T07:28:17.572Z,15.32
2019-06-10T07:30:51.705Z,12.25
2019-06-10T07:33:18.320Z,11.70
2019-06-10T07:35:47.698Z,12.80
2019-06-10T07:38:17.103Z,16.80
2019-06-10T07:40:46.585Z,15.28
2019-06-10T07:43:15.978Z,12.68
2019-06-10T07:45:47.962Z,10.90
2019-06-10T07:48:16.453Z,16.02
2019-06-10T07:50:45.984Z,12.18
2019-06-10T07:53:15.412Z,14.70
2019-06-10T07:55:46.520Z,12.70
2019-06-10T07:58:16.040Z,14.05
2019-06-10T08:00:48.026Z,15.35
2019-06-10T08:03:16.714Z,13.72
2019-06-10T08:05:46.712Z,13.50
2019-06-10T08:08:17.304Z,13.90
2019-06-10T08:10:48.122Z,10.82
2019-06-10T08:13:17.703Z,11.73
2019-06-10T08:15:48.412Z,12.53
2019-06-10T08:18:17.897Z,11.38
2019-06-10T08:20:48.108Z,11.33
2019-06-10T08:23:19.431Z,16.48
2019-06-10T08:25:54.698Z,12.58
2019-06-10T08:28:23.022Z,10.10
2019-06-10T08:30:53.171Z,9.63
2019-06-10T08:33:24.211Z,14.78
2019-06-10T08:35:59.933Z,10.70
2019-06-10T08:38:24.723Z,12.85
2019-06-10T08:40:54.334Z,11.73
2019-06-10T08:43:23.956Z,13.85
2019-06-10T08:45:53.342Z,12.73
2019-06-10T08:48:23.098Z,14.13
2019-06-10T08:50:53.660Z,16.87
2019-06-10T08:53:24.278Z,13.32
2019-06-10T08:55:56.026Z,12.85
2019-06-10T08:58:25.398Z,12.55
2019-06-10T09:00:54.882Z,11.55
2019-06-10T09:03:24.273Z,10.80
2019-06-10T09:05:57.688Z,12.80
2019-06-10T09:08:25.575Z,13.88
2019-06-10T09:10:55.527Z,12.43
2019-06-10T09:13:25.270Z,13.18
2019-06-10T09:16:09.759Z,13.45
2019-06-10T09:18:25.819Z,10.13
2019-06-10T09:20:56.174Z,14.30
2019-06-10T09:23:26.638Z,16.55
2019-06-10T09:25:57.611Z,11.38
2019-06-10T09:28:28.445Z,11.45
2019-06-10T09:30:59.099Z,18.60
2019-06-10T09:33:29.664Z,14.80
2019-06-10T09:35:59.605Z,17.35
2019-06-10T09:38:29.056Z,12.33
2019-06-10T09:41:01.663Z,9.10
2019-06-10T09:43:29.721Z,16.12
2019-06-10T09:45:59.369Z,13.10
2019-06-10T09:48:29.885Z,12.45
2019-06-10T09:50:59.462Z,13.55
2019-06-10T09:53:35.739Z,9.93
2019-06-10T09:56:03.800Z,11.90
2019-06-10T09:58:32.991Z,11.00
2019-06-10T10:01:03.594Z,13.03
2019-06-10T10:03:33.976Z,11.88
2019-06-10T10:06:13.977Z,12.65
2019-06-10T10:08:36.768Z,12.40
2019-06-10T10:11:06.422Z,13.03
2019-06-10T10:13:35.946Z,11.50
2019-06-10T10:16:06.516Z,11.45
2019-06-10T10:18:36.176Z,10.63
2019-06-10T10:21:06.653Z,11.78
2019-06-10T10:23:52.625Z,14.70
2019-06-10T10:26:07.678Z,10.58
2019-06-10T10:28:37.107Z,12.10
2019-06-10T10:31:07.935Z,11.12
2019-06-10T10:33:37.428Z,11.73
2019-06-10T10:36:06.865Z,17.30
2019-06-10T10:38:36.427Z,14.05
2019-06-10T10:41:06.024Z,9.33
2019-06-10T10:43:37.666Z,10.65
2019-06-10T10:46:06.709Z,11.78
2019-06-10T10:48:36.526Z,12.65
2019-06-10T10:51:06.576Z,12.55
2019-06-10T10:53:36.143Z,13.05
2019-06-10T10:56:05.762Z,10.95
2019-06-10T10:58:35.589Z,9.88
2019-06-10T11:01:05.242Z,13.28
2019-06-10T11:03:34.985Z,11.25
2019-06-10T11:06:05.019Z,13.10
2019-06-10T11:08:34.487Z,12.28
2019-06-10T11:11:05.848Z,11.50
2019-06-10T11:13:36.857Z,8.88
2019-06-10T11:16:06.747Z,12.00
2019-06-10T11:18:36.637Z,12.58
2019-06-10T11:21:08.775Z,11.03
2019-06-10T11:23:38.184Z,16.62
2019-06-10T11:26:07.573Z,13.13
2019-06-10T11:28:36.945Z,12.25
2019-06-10T11:31:06.358Z,15.30
2019-06-10T11:33:35.806Z,14.25
2019-06-10T11:36:05.776Z,11.80
2019-06-10T11:38:35.415Z,11.63
2019-06-10T11:41:05.174Z,12.85
2019-06-10T11:43:34.695Z,14.20
2019-06-10T11:46:07.746Z,12.70
2019-06-10T11:48:35.642Z,20.82
2019-06-10T11:51:05.400Z,14.40
2019-06-10T11:53:34.944Z,13.30
2019-06-10T11:56:04.643Z,11.78
2019-06-10T11:58:34.154Z,16.65
2019-06-10T12:01:04.228Z,14.70
2019-06-10T12:03:34.132Z,11.63
2019-06-10T12:06:05.365Z,15.03
2019-06-10T12:08:35.099Z,13.40
2019-06-10T12:11:04.938Z,15.25
2019-06-10T12:13:34.880Z,14.90
2019-06-10T12:17:14.816Z,10.80
2019-06-10T12:18:36.619Z,9.70
2019-06-10T12:21:06.206Z,13.85
2019-06-10T12:23:35.604Z,13.05
2019-06-10T12:26:05.481Z,11.70
2019-06-10T12:28:36.256Z,12.45
2019-06-10T12:31:07.311Z,12.90
2019-06-10T12:33:36.812Z,10.95
2019-06-10T12:36:07.395Z,30.40
2019-06-10T12:38:37.068Z,13.08
2019-06-10T12:41:09.024Z,12.00
2019-06-10T12:43:37.738Z,10.98
2019-06-10T12:46:07.198Z,11.40
2019-06-10T12:48:36.662Z,10.98
2019-06-10T12:51:09.308Z,11.22
2019-06-10T12:53:37.379Z,13.35
2019-06-10T12:56:10.645Z,9.28
2019-06-10T12:58:38.027Z,15.50
2019-06-10T13:01:07.988Z,15.03
2019-06-10T13:03:37.591Z,13.60
2019-06-10T13:06:09.189Z,15.38
2019-06-10T13:08:38.901Z,12.98
2019-06-10T13:11:08.487Z,11.55
2019-06-10T13:13:37.841Z,14.50
2019-06-10T13:16:09.127Z,13.72
2019-06-10T13:18:38.733Z,12.53
2019-06-10T13:21:13.341Z,16.50
2019-06-10T13:23:39.227Z,12.18
2019-06-10T13:26:13.108Z,18.07
2019-06-10T13:28:39.807Z,14.90
2019-06-10T13:31:10.184Z,15.83
2019-06-10T13:33:42.721Z,15.85
2019-06-10T13:36:12.354Z,18.67
2019-06-10T13:38:42.823Z,15.13
2019-06-10T13:41:12.507Z,15.03
2019-06-10T13:43:43.413Z,13.83
2019-06-10T13:46:13.124Z,17.65
2019-06-10T13:48:43.232Z,15.13
2019-06-10T13:51:15.590Z,12.88
2019-06-10T13:53:46.397Z,13.20
2019-06-10T13:56:38.149Z,18.92
2019-06-10T13:58:46.614Z,19.67
2019-06-10T14:01:21.355Z,13.53
2019-06-10T14:03:47.209Z,14.95
2019-06-10T14:06:37.050Z,12.07
2019-06-10T14:08:49.082Z,14.87
2019-06-10T14:11:19.180Z,14.68
2019-06-10T14:13:48.993Z,25.35
2019-06-10T14:16:18.465Z,24.98
2019-06-10T14:18:48.156Z,16.93
2019-06-10T14:21:18.594Z,21.27
2019-06-10T14:23:49.207Z,18.50
2019-06-10T14:26:34.541Z,17.07
2019-06-10T14:28:52.422Z,17.70
2019-06-10T14:31:38.714Z,18.32
2019-06-10T14:33:53.292Z,14.98
2019-06-10T14:36:24.339Z,11.75
2019-06-10T14:38:53.794Z,16.05
2019-06-10T14:41:26.049Z,14.70
2019-06-10T14:43:55.929Z,14.50
2019-06-10T14:46:25.827Z,14.00
2019-06-10T14:48:55.447Z,12.35
2019-06-10T14:51:25.020Z,15.35
2019-06-10T14:53:54.517Z,17.50
2019-06-10T14:56:24.001Z,15.35
2019-06-10T14:58:53.393Z,18.98
2019-06-10T15:01:25.650Z,17.92
2019-06-10T15:03:54.120Z,22.55
2019-06-10T15:06:24.656Z,12.98
2019-06-10T15:08:54.009Z,11.35
2019-06-10T15:11:27.375Z,12.90
2019-06-10T15:13:54.655Z,12.35
2019-06-10T15:16:24.069Z,15.23
2019-06-10T15:18:53.705Z,10.82
2019-06-10T15:21:23.419Z,11.95
2019-06-10T15:23:52.769Z,13.93
2019-06-10T15:26:22.187Z,11.45
2019-06-10T15:28:52.228Z,12.47
2019-06-10T15:31:21.769Z,10.40
2019-06-10T15:33:52.516Z,11.45
2019-06-10T15:36:22.094Z,11.43
2019-06-10T15:38:52.580Z,8.60
2019-06-10T15:41:24.637Z,15.90
2019-06-10T15:43:53.476Z,12.95
2019-06-10T15:46:24.006Z,15.10
2019-06-10T15:48:54.183Z,12.50
2019-06-10T15:51:26.105Z,14.30
2019-06-10T15:53:55.710Z,14.43
2019-06-10T15:56:38.753Z,14.38
2019-06-10T15:58:56.196Z,14.33
2019-06-10T16:01:27.348Z,15.95
2019-06-10T16:03:57.566Z,15.78
2019-06-10T16:06:26.939Z,15.03
2019-06-10T16:08:57.495Z,22.48
2019-06-10T16:11:27.363Z,19.77
2019-06-10T16:13:56.899Z,24.20
2019-06-10T16:16:26.318Z,24.52
2019-06-10T16:18:55.701Z,20.15
2019-06-10T16:21:25.101Z,22.62
2019-06-10T16:23:54.524Z,25.80
2019-06-10T16:26:26.780Z,25.52
2019-06-10T16:28:55.171Z,36.58
2019-06-10T16:31:27.209Z,31.55
2019-06-10T16:33:56.445Z,28.15
2019-06-10T16:36:27.934Z,31.33
2019-06-10T16:38:56.976Z,25.08
2019-06-10T16:41:27.932Z,25.08
2019-06-10T16:43:57.617Z,26.93
2019-06-10T16:46:27.050Z,28.52
2019-06-10T16:48:56.522Z,32.10
2019-06-10T16:51:26.045Z,24.87
2019-06-10T16:53:55.430Z,25.90
2019-06-10T16:56:27.364Z,26.82
2019-06-10T16:58:55.948Z,35.80
2019-06-10T17:01:28.283Z,31.68
2019-06-10T17:03:56.890Z,29.82
2019-06-10T17:06:26.865Z,29.30
2019-06-10T17:08:56.439Z,27.82
2019-06-10T17:11:28.757Z,31.77
2019-06-10T17:13:56.940Z,31.65
2019-06-10T17:16:27.779Z,31.40
2019-06-10T17:18:57.482Z,35.68
2019-06-10T17:21:30.387Z,30.23
2019-06-10T17:23:57.968Z,30.92
2019-06-10T17:26:34.467Z,28.62
2019-06-10T17:28:58.477Z,30.75
2019-06-10T17:31:32.077Z,28.07
2019-06-10T17:34:02.561Z,22.75
2019-06-10T17:36:35.108Z,21.95
2019-06-10T17:39:03.041Z,24.40
2019-06-10T17:41:35.227Z,25.85
2019-06-10T17:44:04.986Z,25.25
2019-06-10T17:46:35.208Z,34.85
2019-06-10T17:49:05.321Z,34.25
2019-06-10T17:51:35.682Z,25.75
2019-06-10T17:54:05.693Z,32.90
2019-06-10T17:56:36.369Z,28.80
2019-06-10T17:59:05.901Z,20.82
2019-06-10T18:01:35.718Z,20.00
2019-06-10T18:04:06.325Z,18.00
2019-06-10T18:06:36.476Z,20.70
2019-06-10T18:09:08.126Z,26.05
2019-06-10T18:11:37.527Z,22.62
2019-06-10T18:14:07.096Z,13.72
2019-06-10T18:16:36.845Z,18.02
2019-06-10T18:19:06.901Z,13.80
2019-06-10T18:21:36.593Z,16.60
2019-06-10T18:24:08.454Z,17.82
2019-06-10T18:26:38.069Z,17.10
2019-06-10T18:29:09.395Z,15.53
2019-06-10T18:31:38.943Z,10.58
2019-06-10T18:34:08.894Z,13.20
2019-06-10T18:36:38.346Z,9.60
2019-06-10T18:39:08.193Z,8.75
2019-06-10T18:41:37.998Z,11.88
2019-06-10T18:44:19.762Z,12.55
2019-06-10T18:46:40.137Z,10.13
2019-06-10T18:49:09.617Z,7.47
2019-06-10T18:51:40.227Z,8.60
2019-06-10T18:54:09.875Z,10.38
2019-06-10T18:56:40.054Z,9.43
2019-06-10T18:59:19.886Z,10.15
2019-06-10T19:01:42.355Z,8.35
2019-06-10T19:04:13.049Z,11.22
2019-06-10T19:06:43.252Z,12.13
2019-06-10T19:09:13.055Z,10.58
2019-06-10T19:11:43.425Z,10.40
2019-06-10T19:14:13.024Z,10.78
2019-06-10T19:16:42.928Z,12.20
2019-06-10T19:19:12.893Z,10.88
2019-06-10T19:21:43.907Z,9.95
2019-06-10T19:24:14.560Z,13.65
2019-06-10T19:26:45.176Z,13.40
2019-06-10T19:29:27.522Z,12.85
2019-06-10T19:31:46.491Z,9.90
2019-06-10T19:34:16.011Z,14.18
2019-06-10T19:36:45.418Z,11.57
2019-06-10T19:39:14.884Z,12.55
2019-06-10T19:41:47.191Z,13.95
2019-06-10T19:44:15.460Z,13.13
2019-06-10T19:46:44.849Z,11.65
2019-06-10T19:49:14.288Z,10.08
2019-06-10T19:51:46.349Z,12.68
2019-06-10T19:54:15.076Z,12.78
2019-06-10T19:56:44.933Z,11.45
2019-06-10T19:59:14.329Z,12.10
2019-06-10T20:01:46.720Z,11.25
2019-06-10T20:04:18.000Z,11.80
2019-06-10T20:06:50.411Z,10.88
2019-06-10T20:09:17.433Z,11.10
2019-06-10T20:11:47.500Z,11.43
2019-06-10T20:14:16.898Z,13.50
2019-06-10T20:16:46.326Z,9.88
2019-06-10T20:19:15.697Z,13.72
2019-06-10T20:21:46.660Z,12.25
2019-06-10T20:24:16.302Z,15.10
2019-06-10T20:26:47.777Z,11.90
2019-06-10T20:29:16.859Z,15.58
2019-06-10T20:31:47.527Z,15.20
2019-06-10T20:34:17.831Z,11.48
2019-06-10T20:36:48.284Z,18.50
2019-06-10T20:39:17.725Z,12.73
2019-06-10T20:41:51.974Z,9.50
2019-06-10T20:44:18.390Z,15.50
2019-06-10T20:46:49.263Z,19.23
2019-06-10T20:49:18.925Z,12.35
2019-06-10T20:52:01.371Z,15.48
2019-06-10T20:54:19.394Z,13.15
2019-06-10T20:56:50.433Z,13.28
2019-06-10T20:59:23.198Z,14.63
2019-06-10T21:01:53.620Z,12.73
2019-06-10T21:04:23.702Z,14.78
2019-06-10T21:06:55.461Z,12.93
2019-06-10T21:09:27.005Z,9.25
2019-06-10T21:11:56.432Z,10.60
2019-06-10T21:14:25.823Z,7.90
2019-06-10T21:16:55.298Z,10.58
2019-06-10T21:19:24.959Z,9.95
2019-06-10T21:21:54.950Z,13.22
2019-06-10T21:24:24.465Z,9.63
2019-06-10T21:26:54.930Z,11.85
2019-06-10T21:29:25.602Z,8.83
2019-06-10T21:31:55.234Z,9.75
2019-06-10T21:34:25.758Z,11.60
2019-06-10T21:36:56.113Z,11.63
2019-06-10T21:39:25.592Z,11.03
2019-06-10T21:41:55.222Z,10.75
2019-06-10T21:44:24.649Z,14.20
2019-06-10T21:46:54.161Z,12.35
2019-06-10T21:49:23.973Z,8.70
2019-06-10T21:51:56.781Z,10.23
2019-06-10T21:54:25.502Z,8.73
2019-06-10T21:56:55.966Z,8.38
2019-06-10T21:59:25.326Z,12.55
2019-06-10T22:01:55.670Z,10.43
2019-06-10T22:04:26.298Z,10.58
2019-06-10T22:06:56.344Z,9.95
2019-06-10T22:09:25.843Z,12.15
2019-06-10T22:11:55.907Z,10.23
2019-06-10T22:14:26.370Z,13.80
2019-06-10T22:16:56.490Z,15.63
2019-06-10T22:19:26.290Z,15.95
2019-06-10T22:21:56.791Z,15.63
2019-06-10T22:24:26.234Z,12.33
2019-06-10T22:26:55.645Z,17.00
2019-06-10T22:29:25.459Z,14.23
2019-06-10T22:31:57.260Z,14.07
2019-06-10T22:34:26.719Z,13.78
2019-06-10T22:36:57.581Z,16.85
2019-06-10T22:39:28.530Z,15.53
2019-06-10T22:41:57.940Z,14.43
2019-06-10T22:44:27.342Z,16.23
2019-06-10T22:46:57.404Z,15.25
2019-06-10T22:49:26.899Z,15.90
2019-06-10T22:51:58.416Z,16.70
2019-06-10T22:54:27.670Z,17.55
2019-06-10T22:56:58.424Z,17.67
2019-06-10T22:59:28.746Z,16.15
2019-06-10T23:01:59.941Z,18.40
2019-06-10T23:04:29.395Z,16.87
2019-06-10T23:06:59.941Z,17.10
2019-06-10T23:09:30.070Z,21.42
2019-06-10T23:11:59.604Z,16.70
2019-06-10T23:14:29.024Z,16.42
2019-06-10T23:16:59.999Z,18.10
2019-06-10T23:19:30.037Z,17.80
2019-06-10T23:22:00.600Z,18.12
2019-06-10T23:24:32.270Z,18.50
2019-06-10T23:27:03.063Z,15.93
2019-06-10T23:29:33.388Z,17.73
2019-06-10T23:32:06.800Z,15.35
2019-06-10T23:34:35.463Z,15.98
2019-06-10T23:37:05.245Z,16.45
2019-06-10T23:39:34.717Z,14.30
2019-06-10T23:42:04.555Z,17.32
2019-06-10T23:44:34.323Z,16.40
2019-06-10T23:47:04.380Z,17.20
2019-06-10T23:49:34.547Z,14.63
2019-06-10T23:52:05.512Z,18.42
2019-06-10T23:54:35.141Z,20.12
2019-06-10T23:57:05.883Z,15.20
2019-06-10T23:59:36.105Z,19.95
